sensor_id;sensor_type;location;lat;lon;timestamp;pressure;altitude;pressure_sealevel;temperature;humidity
10604;BME280;5349;41.554;23.274;2022-12-18T00:01:49;100024.03;;;12.92;100.00
10604;BME280;5349;41.554;23.274;2022-12-18T00:04:20;100031.50;;;12.97;100.00
10604;BME280;5349;41.554;23.274;2022-12-18T00:06:47;100031.94;;;13.00;100.00
10604;BME280;5349;41.554;23.274;2022-12-18T00:09:14;100036.75;;;13.11;100.00
10604;BME280;5349;41.554;23.274;2022-12-18T00:11:41;100034.47;;;13.15;100.00
10604;BME280;5349;41.554;23.274;2022-12-18T00:14:09;100031.47;;;13.24;100.00
10604;BME280;5349;41.554;23.274;2022-12-18T00:16:37;100032.50;;;13.30;100.00
10604;BME280;5349;41.554;23.274;2022-12-18T00:19:06;100023.91;;;13.34;100.00
10604;BME280;5349;41.554;23.274;2022-12-18T00:21:33;100029.88;;;13.36;100.00
10604;BME280;5349;41.554;23.274;2022-12-18T00:24:00;100032.81;;;13.14;100.00
10604;BME280;5349;41.554;23.274;2022-12-18T00:26:29;100036.53;;;13.13;100.00
10604;BME280;5349;41.554;23.274;2022-12-18T00:28:59;100039.63;;;13.10;100.00
10604;BME280;5349;41.554;23.274;2022-12-18T00:31:26;100034.59;;;13.00;100.00
10604;BME280;5349;41.554;23.274;2022-12-18T00:33:53;100035.38;;;12.94;100.00
10604;BME280;5349;41.554;23.274;2022-12-18T00:36:24;100040.31;;;12.91;100.00
10604;BME280;5349;41.554;23.274;2022-12-18T00:38:52;100045.41;;;12.86;100.00
10604;BME280;5349;41.554;23.274;2022-12-18T00:41:20;100032.97;;;12.78;100.00
10604;BME280;5349;41.554;23.274;2022-12-18T00:44:01;100033.56;;;12.74;100.00
10604;BME280;5349;41.554;23.274;2022-12-18T00:46:28;100041.50;;;12.88;100.00
10604;BME280;5349;41.554;23.274;2022-12-18T00:48:54;100046.94;;;12.74;100.00
10604;BME280;5349;41.554;23.274;2022-12-18T00:51:23;100045.97;;;12.81;100.00
10604;BME280;5349;41.554;23.274;2022-12-18T00:53:49;100048.25;;;12.84;100.00
10604;BME280;5349;41.554;23.274;2022-12-18T00:56:16;100052.72;;;12.77;100.00
10604;BME280;5349;41.554;23.274;2022-12-18T00:58:43;100055.66;;;12.82;100.00
10604;BME280;5349;41.554;23.274;2022-12-18T01:01:10;100046.59;;;12.83;100.00
10604;BME280;5349;41.554;23.274;2022-12-18T01:03:37;100049.28;;;12.83;100.00
10604;BME280;5349;41.554;23.274;2022-12-18T01:06:06;100029.63;;;12.70;100.00
10604;BME280;5349;41.554;23.274;2022-12-18T01:08:34;100045.34;;;12.79;100.00
10604;BME280;5349;41.554;23.274;2022-12-18T01:11:06;100044.31;;;12.80;100.00
10604;BME280;5349;41.554;23.274;2022-12-18T01:13:33;100049.09;;;12.85;100.00
10604;BME280;5349;41.554;23.274;2022-12-18T01:16:00;100040.47;;;12.89;100.00
10604;BME280;5349;41.554;23.274;2022-12-18T01:18:27;100053.31;;;12.94;100.00
10604;BME280;5349;41.554;23.274;2022-12-18T01:20:53;100046.72;;;12.96;100.00
10604;BME280;5349;41.554;23.274;2022-12-18T01:23:20;100049.63;;;12.95;100.00
10604;BME280;5349;41.554;23.274;2022-12-18T01:25:48;100047.19;;;13.00;100.00
10604;BME280;5349;41.554;23.274;2022-12-18T01:28:15;100055.22;;;13.00;100.00
10604;BME280;5349;41.554;23.274;2022-12-18T01:30:42;100059.16;;;13.04;100.00
10604;BME280;5349;41.554;23.274;2022-12-18T01:33:09;100062.03;;;13.02;100.00
10604;BME280;5349;41.554;23.274;2022-12-18T01:35:40;100061.25;;;13.08;100.00
10604;BME280;5349;41.554;23.274;2022-12-18T01:38:07;100063.28;;;13.06;100.00
10604;BME280;5349;41.554;23.274;2022-12-18T01:40:35;100060.59;;;13.06;100.00
10604;BME280;5349;41.554;23.274;2022-12-18T01:43:03;100065.78;;;13.08;100.00
10604;BME280;5349;41.554;23.274;2022-12-18T01:45:31;100068.25;;;13.09;100.00
10604;BME280;5349;41.554;23.274;2022-12-18T01:48:00;100062.50;;;13.12;100.00
10604;BME280;5349;41.554;23.274;2022-12-18T01:50:31;100068.28;;;13.16;100.00
10604;BME280;5349;41.554;23.274;2022-12-18T01:53:03;100070.16;;;13.15;100.00
10604;BME280;5349;41.554;23.274;2022-12-18T01:55:35;100064.81;;;13.22;100.00
10604;BME280;5349;41.554;23.274;2022-12-18T01:58:04;100071.44;;;13.26;100.00
10604;BME280;5349;41.554;23.274;2022-12-18T02:00:31;100069.63;;;13.32;100.00
10604;BME280;5349;41.554;23.274;2022-12-18T02:02:58;100066.94;;;13.32;100.00
10604;BME280;5349;41.554;23.274;2022-12-18T02:05:34;100064.72;;;13.36;100.00
10604;BME280;5349;41.554;23.274;2022-12-18T02:08:09;100068.03;;;13.38;100.00
10604;BME280;5349;41.554;23.274;2022-12-18T02:10:44;100073.56;;;13.36;100.00
10604;BME280;5349;41.554;23.274;2022-12-18T02:13:19;100081.19;;;13.33;100.00
10604;BME280;5349;41.554;23.274;2022-12-18T02:15:51;100086.09;;;13.30;100.00
10604;BME280;5349;41.554;23.274;2022-12-18T02:18:24;100080.09;;;13.21;100.00
10604;BME280;5349;41.554;23.274;2022-12-18T02:20:58;100089.53;;;13.17;100.00
10604;BME280;5349;41.554;23.274;2022-12-18T02:23:47;100086.34;;;13.01;100.00
10604;BME280;5349;41.554;23.274;2022-12-18T02:26:22;100090.31;;;12.90;100.00
10604;BME280;5349;41.554;23.274;2022-12-18T02:28:55;100071.72;;;12.82;100.00
10604;BME280;5349;41.554;23.274;2022-12-18T02:31:25;100087.94;;;12.74;100.00
10604;BME280;5349;41.554;23.274;2022-12-18T02:33:59;100095.97;;;12.74;100.00
10604;BME280;5349;41.554;23.274;2022-12-18T02:36:28;100103.75;;;12.69;100.00
10604;BME280;5349;41.554;23.274;2022-12-18T02:38:56;100100.06;;;12.70;100.00
10604;BME280;5349;41.554;23.274;2022-12-18T02:41:26;100103.13;;;12.67;100.00
10604;BME280;5349;41.554;23.274;2022-12-18T02:43:56;100099.81;;;12.65;100.00
10604;BME280;5349;41.554;23.274;2022-12-18T02:46:28;100100.94;;;12.56;100.00
10604;BME280;5349;41.554;23.274;2022-12-18T02:49:06;100120.34;;;12.44;100.00
10604;BME280;5349;41.554;23.274;2022-12-18T02:51:43;100115.22;;;12.42;100.00
10604;BME280;5349;41.554;23.274;2022-12-18T02:54:20;100120.31;;;12.37;100.00
10604;BME280;5349;41.554;23.274;2022-12-18T02:56:54;100120.44;;;12.29;100.00
10604;BME280;5349;41.554;23.274;2022-12-18T02:59:25;100111.75;;;12.27;100.00
10604;BME280;5349;41.554;23.274;2022-12-18T03:02:00;100127.00;;;12.27;100.00
10604;BME280;5349;41.554;23.274;2022-12-18T03:04:32;100127.91;;;12.19;100.00
10604;BME280;5349;41.554;23.274;2022-12-18T03:07:09;100130.97;;;12.16;100.00
10604;BME280;5349;41.554;23.274;2022-12-18T03:09:41;100130.34;;;12.14;100.00
10604;BME280;5349;41.554;23.274;2022-12-18T03:12:15;100135.88;;;12.13;100.00
10604;BME280;5349;41.554;23.274;2022-12-18T03:14:52;100138.09;;;12.09;100.00
10604;BME280;5349;41.554;23.274;2022-12-18T03:17:22;100139.69;;;12.04;100.00
10604;BME280;5349;41.554;23.274;2022-12-18T03:19:52;100143.44;;;12.09;100.00
10604;BME280;5349;41.554;23.274;2022-12-18T03:22:21;100153.69;;;12.06;100.00
10604;BME280;5349;41.554;23.274;2022-12-18T03:24:49;100151.00;;;12.06;100.00
10604;BME280;5349;41.554;23.274;2022-12-18T03:27:20;100154.13;;;12.09;100.00
10604;BME280;5349;41.554;23.274;2022-12-18T03:29:51;100152.84;;;12.06;100.00
10604;BME280;5349;41.554;23.274;2022-12-18T03:32:26;100163.53;;;12.06;100.00
10604;BME280;5349;41.554;23.274;2022-12-18T03:34:58;100162.72;;;12.05;100.00
10604;BME280;5349;41.554;23.274;2022-12-18T03:37:25;100170.91;;;12.04;100.00
10604;BME280;5349;41.554;23.274;2022-12-18T03:39:52;100172.56;;;12.05;100.00
10604;BME280;5349;41.554;23.274;2022-12-18T03:42:25;100182.63;;;12.03;100.00
10604;BME280;5349;41.554;23.274;2022-12-18T03:45:00;100189.56;;;11.97;100.00
10604;BME280;5349;41.554;23.274;2022-12-18T03:47:31;100191.16;;;11.92;100.00
10604;BME280;5349;41.554;23.274;2022-12-18T03:50:08;100193.63;;;11.93;100.00
10604;BME280;5349;41.554;23.274;2022-12-18T03:52:40;100201.56;;;11.87;100.00
10604;BME280;5349;41.554;23.274;2022-12-18T03:55:09;100195.94;;;11.82;100.00
10604;BME280;5349;41.554;23.274;2022-12-18T03:57:38;100200.66;;;11.80;100.00
10604;BME280;5349;41.554;23.274;2022-12-18T04:00:08;100196.69;;;11.76;100.00
10604;BME280;5349;41.554;23.274;2022-12-18T04:02:38;100206.06;;;11.72;100.00
10604;BME280;5349;41.554;23.274;2022-12-18T04:05:07;100211.50;;;11.64;100.00
10604;BME280;5349;41.554;23.274;2022-12-18T04:07:35;100207.59;;;11.52;100.00
10604;BME280;5349;41.554;23.274;2022-12-18T04:10:04;100212.63;;;11.47;100.00
10604;BME280;5349;41.554;23.274;2022-12-18T04:12:32;100212.56;;;11.40;100.00
10604;BME280;5349;41.554;23.274;2022-12-18T04:15:01;100212.72;;;11.39;100.00
10604;BME280;5349;41.554;23.274;2022-12-18T04:17:27;100212.25;;;11.35;100.00
10604;BME280;5349;41.554;23.274;2022-12-18T04:19:54;100216.41;;;11.38;100.00
10604;BME280;5349;41.554;23.274;2022-12-18T04:22:21;100221.38;;;11.41;100.00
10604;BME280;5349;41.554;23.274;2022-12-18T04:24:48;100222.22;;;11.41;100.00
10604;BME280;5349;41.554;23.274;2022-12-18T04:27:15;100221.94;;;11.51;100.00
10604;BME280;5349;41.554;23.274;2022-12-18T04:29:42;100229.97;;;11.51;100.00
10604;BME280;5349;41.554;23.274;2022-12-18T04:32:10;100225.19;;;11.46;100.00
10604;BME280;5349;41.554;23.274;2022-12-18T04:34:37;100229.31;;;11.49;100.00
10604;BME280;5349;41.554;23.274;2022-12-18T04:37:04;100229.81;;;11.52;100.00
10604;BME280;5349;41.554;23.274;2022-12-18T04:39:30;100234.31;;;11.52;100.00
10604;BME280;5349;41.554;23.274;2022-12-18T04:42:00;100236.97;;;11.52;100.00
10604;BME280;5349;41.554;23.274;2022-12-18T04:44:27;100234.94;;;11.54;100.00
10604;BME280;5349;41.554;23.274;2022-12-18T04:46:54;100248.63;;;11.59;100.00
10604;BME280;5349;41.554;23.274;2022-12-18T04:49:22;100246.97;;;11.58;100.00
10604;BME280;5349;41.554;23.274;2022-12-18T04:51:49;100256.31;;;11.54;100.00
10604;BME280;5349;41.554;23.274;2022-12-18T04:54:19;100247.00;;;11.50;100.00
10604;BME280;5349;41.554;23.274;2022-12-18T04:56:46;100267.97;;;11.61;100.00
10604;BME280;5349;41.554;23.274;2022-12-18T04:59:13;100259.97;;;11.61;100.00
10604;BME280;5349;41.554;23.274;2022-12-18T05:01:40;100263.66;;;11.60;100.00
10604;BME280;5349;41.554;23.274;2022-12-18T05:04:07;100262.84;;;11.59;100.00
10604;BME280;5349;41.554;23.274;2022-12-18T05:06:35;100270.28;;;11.64;100.00
10604;BME280;5349;41.554;23.274;2022-12-18T05:09:02;100272.59;;;11.67;100.00
10604;BME280;5349;41.554;23.274;2022-12-18T05:11:29;100279.78;;;11.66;100.00
10604;BME280;5349;41.554;23.274;2022-12-18T05:13:56;100274.03;;;11.55;100.00
10604;BME280;5349;41.554;23.274;2022-12-18T05:16:23;100289.34;;;11.61;100.00
10604;BME280;5349;41.554;23.274;2022-12-18T05:18:49;100291.88;;;11.62;100.00
10604;BME280;5349;41.554;23.274;2022-12-18T05:21:16;100301.25;;;11.58;100.00
10604;BME280;5349;41.554;23.274;2022-12-18T05:23:44;100305.44;;;11.53;100.00
10604;BME280;5349;41.554;23.274;2022-12-18T05:26:15;100312.19;;;11.41;100.00
10604;BME280;5349;41.554;23.274;2022-12-18T05:28:42;100307.88;;;11.40;100.00
10604;BME280;5349;41.554;23.274;2022-12-18T05:31:09;100311.25;;;11.34;100.00
10604;BME280;5349;41.554;23.274;2022-12-18T05:33:37;100316.69;;;11.26;100.00
10604;BME280;5349;41.554;23.274;2022-12-18T05:36:06;100316.03;;;11.24;100.00
10604;BME280;5349;41.554;23.274;2022-12-18T05:38:35;100317.56;;;11.18;100.00
10604;BME280;5349;41.554;23.274;2022-12-18T05:41:05;100328.25;;;11.18;100.00
10604;BME280;5349;41.554;23.274;2022-12-18T05:43:33;100323.56;;;11.20;100.00
10604;BME280;5349;41.554;23.274;2022-12-18T05:46:03;100330.44;;;11.15;100.00
10604;BME280;5349;41.554;23.274;2022-12-18T05:48:30;100331.09;;;11.17;100.00
10604;BME280;5349;41.554;23.274;2022-12-18T05:51:03;100326.47;;;11.11;100.00
10604;BME280;5349;41.554;23.274;2022-12-18T05:53:30;100338.00;;;11.03;100.00
10604;BME280;5349;41.554;23.274;2022-12-18T05:55:59;100340.81;;;11.10;100.00
10604;BME280;5349;41.554;23.274;2022-12-18T05:58:28;100343.13;;;11.13;100.00
10604;BME280;5349;41.554;23.274;2022-12-18T06:00:55;100341.28;;;11.13;100.00
10604;BME280;5349;41.554;23.274;2022-12-18T06:03:21;100344.44;;;11.17;100.00
10604;BME280;5349;41.554;23.274;2022-12-18T06:05:48;100345.16;;;11.11;100.00
10604;BME280;5349;41.554;23.274;2022-12-18T06:08:15;100353.50;;;11.08;100.00
10604;BME280;5349;41.554;23.274;2022-12-18T06:10:42;100358.34;;;11.04;100.00
10604;BME280;5349;41.554;23.274;2022-12-18T06:13:16;100358.34;;;11.04;100.00
10604;BME280;5349;41.554;23.274;2022-12-18T06:15:44;100365.84;;;11.09;100.00
10604;BME280;5349;41.554;23.274;2022-12-18T06:18:11;100378.91;;;11.04;100.00
10604;BME280;5349;41.554;23.274;2022-12-18T06:20:38;100382.72;;;11.01;100.00
10604;BME280;5349;41.554;23.274;2022-12-18T06:23:07;100381.41;;;10.97;100.00
10604;BME280;5349;41.554;23.274;2022-12-18T06:25:36;100388.97;;;10.94;100.00
10604;BME280;5349;41.554;23.274;2022-12-18T06:28:03;100391.44;;;10.95;100.00
10604;BME280;5349;41.554;23.274;2022-12-18T06:30:30;100394.97;;;10.96;100.00
10604;BME280;5349;41.554;23.274;2022-12-18T06:32:58;100393.31;;;10.87;100.00
10604;BME280;5349;41.554;23.274;2022-12-18T06:35:25;100417.47;;;10.93;100.00
10604;BME280;5349;41.554;23.274;2022-12-18T06:37:52;100408.66;;;10.93;100.00
10604;BME280;5349;41.554;23.274;2022-12-18T06:40:19;100420.59;;;10.75;100.00
10604;BME280;5349;41.554;23.274;2022-12-18T06:42:46;100418.09;;;10.65;100.00
10604;BME280;5349;41.554;23.274;2022-12-18T06:45:16;100435.75;;;10.74;100.00
10604;BME280;5349;41.554;23.274;2022-12-18T06:47:43;100435.28;;;10.71;100.00
10604;BME280;5349;41.554;23.274;2022-12-18T06:50:11;100452.28;;;10.70;100.00
10604;BME280;5349;41.554;23.274;2022-12-18T06:52:39;100451.75;;;10.74;100.00
10604;BME280;5349;41.554;23.274;2022-12-18T06:55:11;100453.06;;;10.78;100.00
10604;BME280;5349;41.554;23.274;2022-12-18T06:57:38;100441.41;;;10.79;100.00
10604;BME280;5349;41.554;23.274;2022-12-18T07:00:06;100459.75;;;10.74;100.00
10604;BME280;5349;41.554;23.274;2022-12-18T07:02:33;100466.09;;;10.81;100.00
10604;BME280;5349;41.554;23.274;2022-12-18T07:05:00;100465.41;;;10.79;100.00
10604;BME280;5349;41.554;23.274;2022-12-18T07:07:28;100445.25;;;10.77;100.00
10604;BME280;5349;41.554;23.274;2022-12-18T07:09:55;100467.09;;;10.80;100.00
10604;BME280;5349;41.554;23.274;2022-12-18T07:12:22;100464.59;;;10.79;100.00
10604;BME280;5349;41.554;23.274;2022-12-18T07:14:49;100467.41;;;10.77;100.00
10604;BME280;5349;41.554;23.274;2022-12-18T07:17:16;100469.75;;;10.80;100.00
10604;BME280;5349;41.554;23.274;2022-12-18T07:19:42;100475.59;;;10.84;100.00
10604;BME280;5349;41.554;23.274;2022-12-18T07:22:09;100469.59;;;10.82;100.00
10604;BME280;5349;41.554;23.274;2022-12-18T07:24:38;100475.28;;;10.79;100.00
10604;BME280;5349;41.554;23.274;2022-12-18T07:27:04;100470.25;;;10.84;100.00
10604;BME280;5349;41.554;23.274;2022-12-18T07:29:31;100478.88;;;10.93;100.00
10604;BME280;5349;41.554;23.274;2022-12-18T07:31:58;100489.41;;;10.87;100.00
10604;BME280;5349;41.554;23.274;2022-12-18T07:34:25;100483.22;;;10.94;100.00
10604;BME280;5349;41.554;23.274;2022-12-18T07:36:52;100483.41;;;10.93;100.00
10604;BME280;5349;41.554;23.274;2022-12-18T07:39:19;100495.72;;;11.02;100.00
10604;BME280;5349;41.554;23.274;2022-12-18T07:41:47;100498.19;;;11.03;100.00
10604;BME280;5349;41.554;23.274;2022-12-18T07:44:34;100502.53;;;11.04;100.00
10604;BME280;5349;41.554;23.274;2022-12-18T07:47:01;100492.53;;;10.98;100.00
10604;BME280;5349;41.554;23.274;2022-12-18T07:49:28;100498.03;;;11.05;100.00
10604;BME280;5349;41.554;23.274;2022-12-18T07:51:55;100499.69;;;11.14;100.00
10604;BME280;5349;41.554;23.274;2022-12-18T07:54:22;100499.03;;;11.12;100.00
10604;BME280;5349;41.554;23.274;2022-12-18T07:56:51;100510.66;;;11.27;100.00
10604;BME280;5349;41.554;23.274;2022-12-18T07:59:18;100514.97;;;11.28;100.00
10604;BME280;5349;41.554;23.274;2022-12-18T08:01:45;100518.91;;;11.40;100.00
10604;BME280;5349;41.554;23.274;2022-12-18T08:04:12;100528.09;;;11.45;100.00
10604;BME280;5349;41.554;23.274;2022-12-18T08:06:38;100532.53;;;11.53;100.00
10604;BME280;5349;41.554;23.274;2022-12-18T08:09:05;100532.22;;;11.56;100.00
10604;BME280;5349;41.554;23.274;2022-12-18T08:11:33;100537.41;;;11.57;100.00
10604;BME280;5349;41.554;23.274;2022-12-18T08:14:02;100527.22;;;11.45;100.00
10604;BME280;5349;41.554;23.274;2022-12-18T08:16:29;100532.22;;;11.56;100.00
10604;BME280;5349;41.554;23.274;2022-12-18T08:18:56;100533.38;;;11.61;100.00
10604;BME280;5349;41.554;23.274;2022-12-18T08:21:25;100550.34;;;11.68;100.00
10604;BME280;5349;41.554;23.274;2022-12-18T08:23:53;100543.06;;;11.62;100.00
10604;BME280;5349;41.554;23.274;2022-12-18T08:26:20;100556.19;;;11.72;100.00
10604;BME280;5349;41.554;23.274;2022-12-18T08:28:48;100565.63;;;11.60;100.00
10604;BME280;5349;41.554;23.274;2022-12-18T08:31:17;100524.41;;;11.46;100.00
10604;BME280;5349;41.554;23.274;2022-12-18T08:33:45;100544.59;;;11.57;100.00
10604;BME280;5349;41.554;23.274;2022-12-18T08:36:11;100560.47;;;11.58;100.00
10604;BME280;5349;41.554;23.274;2022-12-18T08:38:38;100550.44;;;11.60;100.00
10604;BME280;5349;41.554;23.274;2022-12-18T08:41:07;100571.31;;;11.49;100.00
10604;BME280;5349;41.554;23.274;2022-12-18T08:43:34;100565.97;;;11.49;100.00
10604;BME280;5349;41.554;23.274;2022-12-18T08:46:20;100550.13;;;11.55;100.00
10604;BME280;5349;41.554;23.274;2022-12-18T08:48:49;100537.13;;;11.36;100.00
10604;BME280;5349;41.554;23.274;2022-12-18T08:51:17;100551.25;;;11.53;100.00
10604;BME280;5349;41.554;23.274;2022-12-18T08:53:44;100562.63;;;11.55;100.00
10604;BME280;5349;41.554;23.274;2022-12-18T08:56:12;100576.69;;;11.41;100.00
10604;BME280;5349;41.554;23.274;2022-12-18T08:58:39;100556.84;;;11.35;100.00
10604;BME280;5349;41.554;23.274;2022-12-18T09:01:10;100534.31;;;11.30;100.00
10604;BME280;5349;41.554;23.274;2022-12-18T09:03:39;100544.44;;;11.50;100.00
10604;BME280;5349;41.554;23.274;2022-12-18T09:06:06;100548.44;;;11.54;100.00
10604;BME280;5349;41.554;23.274;2022-12-18T09:08:36;100564.94;;;11.58;100.00
10604;BME280;5349;41.554;23.274;2022-12-18T09:11:04;100547.13;;;11.42;100.00
10604;BME280;5349;41.554;23.274;2022-12-18T09:13:31;100557.50;;;11.37;100.00
10604;BME280;5349;41.554;23.274;2022-12-18T09:15:58;100557.28;;;11.47;100.00
10604;BME280;5349;41.554;23.274;2022-12-18T09:18:25;100559.28;;;11.45;100.00
10604;BME280;5349;41.554;23.274;2022-12-18T09:20:53;100570.16;;;11.43;100.00
10604;BME280;5349;41.554;23.274;2022-12-18T09:23:20;100555.47;;;11.55;100.00
10604;BME280;5349;41.554;23.274;2022-12-18T09:25:47;100560.66;;;11.41;100.00
10604;BME280;5349;41.554;23.274;2022-12-18T09:28:15;100561.28;;;11.51;100.00
10604;BME280;5349;41.554;23.274;2022-12-18T09:30:44;100558.78;;;11.49;100.00
10604;BME280;5349;41.554;23.274;2022-12-18T09:33:11;100563.59;;;11.54;100.00
10604;BME280;5349;41.554;23.274;2022-12-18T09:35:40;100562.97;;;11.44;100.00
10604;BME280;5349;41.554;23.274;2022-12-18T09:38:11;100567.63;;;11.50;100.00
10604;BME280;5349;41.554;23.274;2022-12-18T09:40:41;100565.50;;;11.45;100.00
10604;BME280;5349;41.554;23.274;2022-12-18T09:43:16;100559.19;;;11.30;100.00
10604;BME280;5349;41.554;23.274;2022-12-18T09:45:46;100576.56;;;11.26;100.00
10604;BME280;5349;41.554;23.274;2022-12-18T09:48:19;100563.88;;;11.28;100.00
10604;BME280;5349;41.554;23.274;2022-12-18T09:50:48;100562.66;;;11.39;100.00
10604;BME280;5349;41.554;23.274;2022-12-18T09:53:21;100566.66;;;11.43;100.00
10604;BME280;5349;41.554;23.274;2022-12-18T09:55:50;100571.19;;;11.42;100.00
10604;BME280;5349;41.554;23.274;2022-12-18T09:58:24;100567.16;;;11.54;100.00
10604;BME280;5349;41.554;23.274;2022-12-18T10:00:54;100568.78;;;11.63;100.00
10604;BME280;5349;41.554;23.274;2022-12-18T13:22:45;100611.44;;;12.62;91.46
10604;BME280;5349;41.554;23.274;2022-12-18T13:25:33;100607.38;;;12.44;93.42
10604;BME280;5349;41.554;23.274;2022-12-18T13:28:06;100618.91;;;12.22;95.99
10604;BME280;5349;41.554;23.274;2022-12-18T13:30:49;100626.44;;;12.18;98.40
10604;BME280;5349;41.554;23.274;2022-12-18T13:33:42;100617.09;;;12.14;99.06
10604;BME280;5349;41.554;23.274;2022-12-18T13:36:25;100632.03;;;12.09;100.00
10604;BME280;5349;41.554;23.274;2022-12-18T13:39:36;100624.16;;;12.07;100.00
10604;BME280;5349;41.554;23.274;2022-12-18T13:45:40;100638.53;;;12.07;100.00
10604;BME280;5349;41.554;23.274;2022-12-18T13:48:16;100634.03;;;12.07;98.97
10604;BME280;5349;41.554;23.274;2022-12-18T13:50:55;100648.84;;;12.17;97.56
10604;BME280;5349;41.554;23.274;2022-12-18T13:53:26;100650.88;;;12.15;97.94
10604;BME280;5349;41.554;23.274;2022-12-18T13:55:55;100639.56;;;12.06;100.00
10604;BME280;5349;41.554;23.274;2022-12-18T13:58:21;100653.16;;;11.96;97.58
10604;BME280;5349;41.554;23.274;2022-12-18T14:00:48;100664.72;;;11.89;95.82
10604;BME280;5349;41.554;23.274;2022-12-18T14:03:18;100666.41;;;11.90;97.46
10604;BME280;5349;41.554;23.274;2022-12-18T14:05:45;100657.06;;;11.86;96.01
10604;BME280;5349;41.554;23.274;2022-12-18T14:08:18;100668.06;;;11.91;96.07
10604;BME280;5349;41.554;23.274;2022-12-18T14:10:46;100671.44;;;11.85;95.48
10604;BME280;5349;41.554;23.274;2022-12-18T14:13:21;100664.09;;;11.79;96.19
10604;BME280;5349;41.554;23.274;2022-12-18T14:15:50;100673.47;;;11.75;98.62
10604;BME280;5349;41.554;23.274;2022-12-18T14:18:21;100684.38;;;11.65;96.76
10604;BME280;5349;41.554;23.274;2022-12-18T14:20:50;100684.19;;;11.59;98.74
10604;BME280;5349;41.554;23.274;2022-12-18T14:23:28;100680.34;;;11.53;99.35
10604;BME280;5349;41.554;23.274;2022-12-18T14:25:55;100697.22;;;11.54;98.46
10604;BME280;5349;41.554;23.274;2022-12-18T14:28:23;100691.53;;;11.49;100.00
10604;BME280;5349;41.554;23.274;2022-12-18T14:30:52;100693.56;;;11.55;99.11
10604;BME280;5349;41.554;23.274;2022-12-18T14:33:22;100711.59;;;11.45;100.00
10604;BME280;5349;41.554;23.274;2022-12-18T14:35:54;100704.56;;;11.44;100.00
10604;BME280;5349;41.554;23.274;2022-12-18T14:38:24;100709.09;;;11.35;100.00
10604;BME280;5349;41.554;23.274;2022-12-18T14:40:58;100700.09;;;11.36;100.00
10604;BME280;5349;41.554;23.274;2022-12-18T14:43:29;100711.13;;;11.33;100.00
10604;BME280;5349;41.554;23.274;2022-12-18T14:45:57;100715.59;;;11.33;100.00
10604;BME280;5349;41.554;23.274;2022-12-18T14:48:35;100723.63;;;11.41;100.00
